sensor_id;sensor_type;location;lat;lon;timestamp;pressure;altitude;pressure_sealevel;temperature;humidity
64644;BME280;51056;50.330;7.914;2023-03-02T00:02:04;101248.91;;;0.07;70.25
64644;BME280;51056;50.330;7.914;2023-03-02T00:05:08;101243.75;;;0.04;70.45
64644;BME280;51056;50.330;7.914;2023-03-02T00:08:14;101248.88;;;-0.01;70.47
64644;BME280;51056;50.330;7.914;2023-03-02T00:11:18;101249.72;;;-0.07;70.54
64644;BME280;51056;50.330;7.914;2023-03-02T00:14:23;101258.28;;;-0.12;70.81
64644;BME280;51056;50.330;7.914;2023-03-02T00:17:27;101255.69;;;-0.14;70.79
64644;BME280;51056;50.330;7.914;2023-03-02T00:20:30;101255.69;;;-0.14;70.50
64644;BME280;51056;50.330;7.914;2023-03-02T00:23:33;101248.00;;;-0.09;70.74
64644;BME280;51056;50.330;7.914;2023-03-02T00:26:36;101237.72;;;-0.12;70.27
64644;BME280;51056;50.330;7.914;2023-03-02T00:29:40;101244.56;;;-0.08;69.84
64644;BME280;51056;50.330;7.914;2023-03-02T00:32:47;101242.88;;;-0.06;68.46
64644;BME280;51056;50.330;7.914;2023-03-02T00:35:50;101241.13;;;-0.15;69.39
64644;BME280;51056;50.330;7.914;2023-03-02T00:38:53;101241.09;;;-0.21;69.92
64644;BME280;51056;50.330;7.914;2023-03-02T00:41:57;101239.38;;;-0.25;70.43
64644;BME280;51056;50.330;7.914;2023-03-02T00:45:00;101236.81;;;-0.22;70.52
64644;BME280;51056;50.330;7.914;2023-03-02T00:48:03;101238.50;;;-0.22;70.66
64644;BME280;51056;50.330;7.914;2023-03-02T00:51:07;101229.94;;;-0.29;70.88
64644;BME280;51056;50.330;7.914;2023-03-02T00:54:11;101234.25;;;-0.22;70.72
64644;BME280;51056;50.330;7.914;2023-03-02T00:57:15;101230.78;;;-0.26;70.45
64644;BME280;51056;50.330;7.914;2023-03-02T01:00:19;101234.25;;;-0.17;70.13
64644;BME280;51056;50.330;7.914;2023-03-02T01:03:23;101232.56;;;-0.18;70.60
64644;BME280;51056;50.330;7.914;2023-03-02T01:06:27;101223.97;;;-0.20;70.38
64644;BME280;51056;50.330;7.914;2023-03-02T01:09:30;101229.09;;;-0.20;70.63
64644;BME280;51056;50.330;7.914;2023-03-02T01:12:35;101229.09;;;-0.24;70.37
64644;BME280;51056;50.330;7.914;2023-03-02T01:24:07;101219.63;;;-0.35;70.75
64644;BME280;51056;50.330;7.914;2023-03-02T01:27:11;101225.63;;;-0.38;71.12
64644;BME280;51056;50.330;7.914;2023-03-02T01:30:14;101225.63;;;-0.41;71.05
64644;BME280;51056;50.330;7.914;2023-03-02T01:33:17;101216.16;;;-0.45;71.46
64644;BME280;51056;50.330;7.914;2023-03-02T01:36:26;101216.16;;;-0.50;72.01
64644;BME280;51056;50.330;7.914;2023-03-02T01:39:29;101219.59;;;-0.49;71.78
64644;BME280;51056;50.330;7.914;2023-03-02T01:42:33;101222.09;;;-0.58;72.13
64644;BME280;51056;50.330;7.914;2023-03-02T01:45:50;101216.13;;;-0.60;72.33
64644;BME280;51056;50.330;7.914;2023-03-02T01:49:01;101210.97;;;-0.63;72.73
64644;BME280;51056;50.330;7.914;2023-03-02T01:52:13;101206.66;;;-0.69;72.98
64644;BME280;51056;50.330;7.914;2023-03-02T01:55:20;101201.56;;;-0.58;72.21
64644;BME280;51056;50.330;7.914;2023-03-02T01:58:27;101201.56;;;-0.58;72.38
64644;BME280;51056;50.330;7.914;2023-03-02T02:01:33;101202.41;;;-0.61;72.79
64644;BME280;51056;50.330;7.914;2023-03-02T02:04:40;101196.41;;;-0.61;72.48
64644;BME280;51056;50.330;7.914;2023-03-02T02:07:44;101194.75;;;-0.53;72.51
64644;BME280;51056;50.330;7.914;2023-03-02T02:10:48;101196.41;;;-0.58;72.63
64644;BME280;51056;50.330;7.914;2023-03-02T02:13:52;101204.13;;;-0.60;72.71
64644;BME280;51056;50.330;7.914;2023-03-02T02:16:57;101198.13;;;-0.63;72.95
64644;BME280;51056;50.330;7.914;2023-03-02T02:23:28;101201.50;;;-0.67;72.53
64644;BME280;51056;50.330;7.914;2023-03-02T02:29:42;101196.34;;;-0.71;72.83
64644;BME280;51056;50.330;7.914;2023-03-02T02:32:49;101191.22;;;-0.80;73.33
64644;BME280;51056;50.330;7.914;2023-03-02T02:35:59;101185.19;;;-0.82;73.76
64644;BME280;51056;50.330;7.914;2023-03-02T02:39:04;101182.69;;;-0.73;73.29
64644;BME280;51056;50.330;7.914;2023-03-02T02:42:12;101176.66;;;-0.78;73.42
64644;BME280;51056;50.330;7.914;2023-03-02T02:45:19;101170.66;;;-0.80;73.63
64644;BME280;51056;50.330;7.914;2023-03-02T02:48:23;101176.63;;;-0.85;73.99
64644;BME280;51056;50.330;7.914;2023-03-02T02:51:27;101173.16;;;-0.90;73.94
64644;BME280;51056;50.330;7.914;2023-03-02T02:54:31;101174.88;;;-0.96;73.25
64644;BME280;51056;50.330;7.914;2023-03-02T02:57:36;101171.41;;;-0.98;74.16
64644;BME280;51056;50.330;7.914;2023-03-02T03:00:39;101168.03;;;-0.95;74.37
64644;BME280;51056;50.330;7.914;2023-03-02T03:03:56;101168.00;;;-0.94;74.62
64644;BME280;51056;50.330;7.914;2023-03-02T03:07:01;101168.84;;;-0.98;73.97
64644;BME280;51056;50.330;7.914;2023-03-02T03:13:17;101162.84;;;-1.01;74.25
64644;BME280;51056;50.330;7.914;2023-03-02T03:16:20;101161.94;;;-1.06;74.76
64644;BME280;51056;50.330;7.914;2023-03-02T03:19:28;101167.97;;;-1.03;74.46
64644;BME280;51056;50.330;7.914;2023-03-02T03:22:33;101164.53;;;-1.06;74.52
64644;BME280;51056;50.330;7.914;2023-03-02T03:25:36;101165.38;;;-1.07;74.65
64644;BME280;51056;50.330;7.914;2023-03-02T03:28:40;101167.06;;;-1.09;74.95
64644;BME280;51056;50.330;7.914;2023-03-02T03:31:43;101164.50;;;-1.09;75.04
64644;BME280;51056;50.330;7.914;2023-03-02T03:34:47;101160.22;;;-1.13;74.86
64644;BME280;51056;50.330;7.914;2023-03-02T03:37:58;101161.03;;;-1.19;75.10
64644;BME280;51056;50.330;7.914;2023-03-02T03:41:04;101161.84;;;-1.25;75.32
64644;BME280;51056;50.330;7.914;2023-03-02T03:44:07;101164.44;;;-1.20;75.25
64644;BME280;51056;50.330;7.914;2023-03-02T03:47:12;101168.72;;;-1.21;75.31
64644;BME280;51056;50.330;7.914;2023-03-02T03:50:16;101163.59;;;-1.16;75.12
64644;BME280;51056;50.330;7.914;2023-03-02T03:53:20;101165.31;;;-1.21;74.97
64644;BME280;51056;50.330;7.914;2023-03-02T03:56:23;101161.84;;;-1.22;74.50
64644;BME280;51056;50.330;7.914;2023-03-02T03:59:26;101158.44;;;-1.24;74.47
64644;BME280;51056;50.330;7.914;2023-03-02T04:02:36;101165.25;;;-1.29;74.98
64644;BME280;51056;50.330;7.914;2023-03-02T04:05:39;101166.94;;;-1.28;75.22
64644;BME280;51056;50.330;7.914;2023-03-02T04:08:46;101164.38;;;-1.32;75.47
64644;BME280;51056;50.330;7.914;2023-03-02T04:11:50;101162.66;;;-1.33;75.07
64644;BME280;51056;50.330;7.914;2023-03-02T04:14:53;101170.34;;;-1.33;75.31
64644;BME280;51056;50.330;7.914;2023-03-02T04:17:56;101174.63;;;-1.34;75.27
64644;BME280;51056;50.330;7.914;2023-03-02T04:21:00;101173.72;;;-1.39;75.13
64644;BME280;51056;50.330;7.914;2023-03-02T04:24:04;101177.16;;;-1.40;75.42
64644;BME280;51056;50.330;7.914;2023-03-02T04:27:07;101173.72;;;-1.39;75.82
64644;BME280;51056;50.330;7.914;2023-03-02T04:30:11;101182.25;;;-1.43;75.58
64644;BME280;51056;50.330;7.914;2023-03-02T04:33:15;101177.97;;;-1.46;75.26
64644;BME280;51056;50.330;7.914;2023-03-02T04:36:18;101177.06;;;-1.48;75.82
64644;BME280;51056;50.330;7.914;2023-03-02T04:39:23;101181.38;;;-1.47;75.71
64644;BME280;51056;50.330;7.914;2023-03-02T04:42:28;101184.78;;;-1.45;75.41
64644;BME280;51056;50.330;7.914;2023-03-02T04:45:30;101177.09;;;-1.49;75.18
64644;BME280;51056;50.330;7.914;2023-03-02T04:48:34;101176.19;;;-1.51;75.53
64644;BME280;51056;50.330;7.914;2023-03-02T04:51:38;101180.44;;;-1.59;75.77
64644;BME280;51056;50.330;7.914;2023-03-02T04:54:41;101183.81;;;-1.60;75.82
64644;BME280;51056;50.330;7.914;2023-03-02T04:57:44;101166.72;;;-1.61;76.00
64644;BME280;51056;50.330;7.914;2023-03-02T05:00:47;101177.84;;;-1.61;75.67
64644;BME280;51056;50.330;7.914;2023-03-02T05:03:53;101181.25;;;-1.62;76.17
64644;BME280;51056;50.330;7.914;2023-03-02T05:07:04;101183.81;;;-1.60;76.01
64644;BME280;51056;50.330;7.914;2023-03-02T05:10:07;101178.66;;;-1.64;75.91
64644;BME280;51056;50.330;7.914;2023-03-02T05:13:10;101176.94;;;-1.68;75.94
64644;BME280;51056;50.330;7.914;2023-03-02T05:16:13;101182.06;;;-1.68;76.28
64644;BME280;51056;50.330;7.914;2023-03-02T05:19:17;101183.75;;;-1.70;75.79
64644;BME280;51056;50.330;7.914;2023-03-02T05:22:21;101189.72;;;-1.72;75.89
64644;BME280;51056;50.330;7.914;2023-03-02T05:25:24;101179.47;;;-1.71;75.75
64644;BME280;51056;50.330;7.914;2023-03-02T05:28:28;101184.56;;;-1.74;75.96
64644;BME280;51056;50.330;7.914;2023-03-02T05:31:35;101174.31;;;-1.75;76.10
64644;BME280;51056;50.330;7.914;2023-03-02T05:34:40;101174.25;;;-1.80;76.32
64644;BME280;51056;50.330;7.914;2023-03-02T05:37:43;101176.81;;;-1.81;76.29
64644;BME280;51056;50.330;7.914;2023-03-02T05:40:47;101181.94;;;-1.80;76.20
64644;BME280;51056;50.330;7.914;2023-03-02T05:43:50;101181.91;;;-1.83;76.14
64644;BME280;51056;50.330;7.914;2023-03-02T05:46:53;101183.47;;;-2.00;76.90
64644;BME280;51056;50.330;7.914;2023-03-02T05:49:55;101175.91;;;-1.87;76.08
64644;BME280;51056;50.330;7.914;2023-03-02T05:52:58;101184.44;;;-1.88;76.19
64644;BME280;51056;50.330;7.914;2023-03-02T05:56:04;101185.31;;;-1.87;75.86
64644;BME280;51056;50.330;7.914;2023-03-02T05:59:07;101179.31;;;-1.88;76.01
64644;BME280;51056;50.330;7.914;2023-03-02T06:02:10;101183.63;;;-1.82;75.83
64644;BME280;51056;50.330;7.914;2023-03-02T06:05:15;101190.50;;;-1.81;75.50
64644;BME280;51056;50.330;7.914;2023-03-02T06:08:19;101189.63;;;-1.80;75.53
64644;BME280;51056;50.330;7.914;2023-03-02T06:11:24;101189.59;;;-1.88;75.70
64644;BME280;51056;50.330;7.914;2023-03-02T06:14:27;101196.41;;;-1.88;75.79
64644;BME280;51056;50.330;7.914;2023-03-02T06:17:30;101198.13;;;-1.85;75.55
64644;BME280;51056;50.330;7.914;2023-03-02T06:20:34;101200.66;;;-1.90;75.59
64644;BME280;51056;50.330;7.914;2023-03-02T06:23:38;101197.13;;;-2.01;76.17
64644;BME280;51056;50.330;7.914;2023-03-02T06:26:45;101202.22;;;-2.04;76.33
64644;BME280;51056;50.330;7.914;2023-03-02T06:29:48;101201.34;;;-2.06;76.54
64644;BME280;51056;50.330;7.914;2023-03-02T06:32:52;101207.31;;;-2.07;76.61
64644;BME280;51056;50.330;7.914;2023-03-02T06:35:56;101198.84;;;-2.00;76.70
64644;BME280;51056;50.330;7.914;2023-03-02T06:38:59;101200.47;;;-2.10;77.12
64644;BME280;51056;50.330;7.914;2023-03-02T06:42:02;101207.38;;;-2.01;76.54
64644;BME280;51056;50.330;7.914;2023-03-02T06:45:06;101199.75;;;-1.95;76.67
64644;BME280;51056;50.330;7.914;2023-03-02T06:48:10;101198.06;;;-1.92;76.05
64644;BME280;51056;50.330;7.914;2023-03-02T06:51:13;101202.34;;;-1.92;76.25
64644;BME280;51056;50.330;7.914;2023-03-02T06:54:15;101200.63;;;-1.93;76.36
64644;BME280;51056;50.330;7.914;2023-03-02T06:57:18;101205.47;;;-2.22;77.71
64644;BME280;51056;50.330;7.914;2023-03-02T07:00:21;101207.09;;;-2.29;79.20
64644;BME280;51056;50.330;7.914;2023-03-02T07:03:29;101208.84;;;-2.25;79.09
64644;BME280;51056;50.330;7.914;2023-03-02T07:06:32;101213.28;;;-2.10;78.16
64644;BME280;51056;50.330;7.914;2023-03-02T07:09:36;101209.16;;;-1.94;77.98
64644;BME280;51056;50.330;7.914;2023-03-02T07:12:39;101218.66;;;-1.84;77.59
64644;BME280;51056;50.330;7.914;2023-03-02T07:15:42;101211.88;;;-1.77;77.74
64644;BME280;51056;50.330;7.914;2023-03-02T07:18:45;101214.50;;;-1.70;77.64
64644;BME280;51056;50.330;7.914;2023-03-02T07:21:48;101208.56;;;-1.67;77.26
64644;BME280;51056;50.330;7.914;2023-03-02T07:24:51;101206.81;;;-1.71;77.19
64644;BME280;51056;50.330;7.914;2023-03-02T07:27:54;101205.19;;;-1.61;77.08
64644;BME280;51056;50.330;7.914;2023-03-02T07:30:58;101204.34;;;-1.60;77.18
64644;BME280;51056;50.330;7.914;2023-03-02T07:34:01;101203.59;;;-1.49;77.42
64644;BME280;51056;50.330;7.914;2023-03-02T07:37:04;101202.81;;;-1.40;76.91
64644;BME280;51056;50.330;7.914;2023-03-02T07:40:08;101195.97;;;-1.35;76.91
64644;BME280;51056;50.330;7.914;2023-03-02T07:43:13;101197.72;;;-1.28;76.79
64644;BME280;51056;50.330;7.914;2023-03-02T07:46:15;101190.09;;;-1.19;76.26
64644;BME280;51056;50.330;7.914;2023-03-02T07:49:18;101187.66;;;-1.05;75.59
64644;BME280;51056;50.330;7.914;2023-03-02T07:52:21;101195.38;;;-0.99;75.31
64644;BME280;51056;50.330;7.914;2023-03-02T07:55:24;101195.41;;;-0.94;75.19
64644;BME280;51056;50.330;7.914;2023-03-02T07:58:27;101191.19;;;-0.83;75.08
64644;BME280;51056;50.330;7.914;2023-03-02T08:01:30;101181.84;;;-0.67;74.91
64644;BME280;51056;50.330;7.914;2023-03-02T08:04:33;101188.75;;;-0.54;75.28
64644;BME280;51056;50.330;7.914;2023-03-02T08:07:37;101181.06;;;-0.46;74.99
64644;BME280;51056;50.330;7.914;2023-03-02T08:10:41;101193.91;;;-0.38;75.28
64644;BME280;51056;50.330;7.914;2023-03-02T08:13:44;101187.06;;;-0.39;75.42
64644;BME280;51056;50.330;7.914;2023-03-02T08:16:49;101191.34;;;-0.35;75.24
64644;BME280;51056;50.330;7.914;2023-03-02T08:19:54;101190.47;;;-0.48;76.46
64644;BME280;51056;50.330;7.914;2023-03-02T08:22:57;101193.03;;;-0.54;76.12
64644;BME280;51056;50.330;7.914;2023-03-02T08:26:00;101188.88;;;-0.15;75.69
64644;BME280;51056;50.330;7.914;2023-03-02T08:29:04;101181.16;;;0.03;74.13
64644;BME280;51056;50.330;7.914;2023-03-02T08:32:10;101185.50;;;0.16;74.34
64644;BME280;51056;50.330;7.914;2023-03-02T08:35:13;101178.63;;;0.31;74.19
64644;BME280;51056;50.330;7.914;2023-03-02T08:38:18;101177.78;;;0.44;73.88
64644;BME280;51056;50.330;7.914;2023-03-02T08:41:21;101170.91;;;0.52;73.45
64644;BME280;51056;50.330;7.914;2023-03-02T08:44:25;101161.47;;;0.60;73.76
64644;BME280;51056;50.330;7.914;2023-03-02T08:47:28;101153.72;;;0.73;71.88
64644;BME280;51056;50.330;7.914;2023-03-02T08:50:31;101149.41;;;0.84;70.64
64644;BME280;51056;50.330;7.914;2023-03-02T08:53:37;101145.91;;;1.02;68.83
64644;BME280;51056;50.330;7.914;2023-03-02T08:56:40;101139.88;;;1.20;65.37
64644;BME280;51056;50.330;7.914;2023-03-02T08:59:46;101131.22;;;1.33;64.82
64644;BME280;51056;50.330;7.914;2023-03-02T09:02:48;101128.56;;;1.48;64.44
64644;BME280;51056;50.330;7.914;2023-03-02T09:05:51;101130.19;;;1.68;64.43
64644;BME280;51056;50.330;7.914;2023-03-02T09:08:54;101124.13;;;1.76;63.74
64644;BME280;51056;50.330;7.914;2023-03-02T09:11:58;101130.88;;;1.88;62.88
64644;BME280;51056;50.330;7.914;2023-03-02T09:15:03;101126.44;;;2.12;60.71
64644;BME280;51056;50.330;7.914;2023-03-02T09:18:07;101128.03;;;2.25;60.11
64644;BME280;51056;50.330;7.914;2023-03-02T09:21:11;101127.06;;;2.38;60.86
64644;BME280;51056;50.330;7.914;2023-03-02T09:24:14;101125.25;;;2.49;60.98
64644;BME280;51056;50.330;7.914;2023-03-02T09:27:17;101124.31;;;2.56;59.22
64644;BME280;51056;50.330;7.914;2023-03-02T09:30:21;101121.59;;;2.72;57.99
64644;BME280;51056;50.330;7.914;2023-03-02T09:33:26;101120.59;;;2.84;59.18
64644;BME280;51056;50.330;7.914;2023-03-02T09:36:30;101116.84;;;3.09;56.98
64644;BME280;51056;50.330;7.914;2023-03-02T09:39:35;101111.59;;;3.15;57.80
64644;BME280;51056;50.330;7.914;2023-03-02T09:42:52;101112.28;;;3.31;56.28
64644;BME280;51056;50.330;7.914;2023-03-02T09:46:05;101112.28;;;3.31;57.19
64644;BME280;51056;50.330;7.914;2023-03-02T09:52:36;101107.78;;;3.45;57.17
64644;BME280;51056;50.330;7.914;2023-03-02T09:55:41;101106.66;;;3.65;57.20
64644;BME280;51056;50.330;7.914;2023-03-02T09:58:58;101104.44;;;3.97;55.35
64644;BME280;51056;50.330;7.914;2023-03-02T10:02:03;101103.47;;;4.03;54.91
64644;BME280;51056;50.330;7.914;2023-03-02T10:05:30;101101.66;;;4.10;55.38
64644;BME280;51056;50.330;7.914;2023-03-02T10:08:36;101094.59;;;4.19;54.91
64644;BME280;51056;50.330;7.914;2023-03-02T10:11:48;101101.28;;;4.31;54.77
64644;BME280;51056;50.330;7.914;2023-03-02T10:14:58;101085.63;;;4.39;54.07
64644;BME280;51056;50.330;7.914;2023-03-02T10:21:23;101090.47;;;4.56;54.55
64644;BME280;51056;50.330;7.914;2023-03-02T10:24:34;101085.97;;;4.67;53.26
64644;BME280;51056;50.330;7.914;2023-03-02T10:27:44;101081.38;;;4.81;53.07
64644;BME280;51056;50.330;7.914;2023-03-02T10:30:56;101082.03;;;4.93;53.07
64644;BME280;51056;50.330;7.914;2023-03-02T10:34:03;101074.69;;;5.13;52.17
64644;BME280;51056;50.330;7.914;2023-03-02T10:37:19;101082.38;;;5.18;51.79
64644;BME280;51056;50.330;7.914;2023-03-02T10:44:00;101082.78;;;5.40;50.71
64644;BME280;51056;50.330;7.914;2023-03-02T10:47:05;101079.97;;;5.49;51.17
64644;BME280;51056;50.330;7.914;2023-03-02T10:50:19;101077.22;;;5.55;51.39
64644;BME280;51056;50.330;7.914;2023-03-02T10:53:23;101074.25;;;5.72;50.57
64644;BME280;51056;50.330;7.914;2023-03-02T10:56:26;101066.47;;;5.72;50.78
64644;BME280;51056;50.330;7.914;2023-03-02T11:02:53;101054.41;;;6.07;50.46
64644;BME280;51056;50.330;7.914;2023-03-02T11:05:57;101043.78;;;6.16;50.93
64644;BME280;51056;50.330;7.914;2023-03-02T11:09:02;101050.84;;;6.11;51.08
64644;BME280;51056;50.330;7.914;2023-03-02T11:12:11;101045.25;;;6.26;50.67
64644;BME280;51056;50.330;7.914;2023-03-02T11:15:18;101042.22;;;6.43;50.37
64644;BME280;51056;50.330;7.914;2023-03-02T11:24:50;101024.41;;;6.60;49.42
64644;BME280;51056;50.330;7.914;2023-03-02T11:27:57;101022.38;;;6.71;49.41
64644;BME280;51056;50.330;7.914;2023-03-02T11:31:04;101021.94;;;6.87;48.98
64644;BME280;51056;50.330;7.914;2023-03-02T11:34:29;101019.34;;;6.87;49.27
64644;BME280;51056;50.330;7.914;2023-03-02T11:43:43;101013.13;;;7.20;47.40
64644;BME280;51056;50.330;7.914;2023-03-02T11:46:50;101012.19;;;7.23;48.44
64644;BME280;51056;50.330;7.914;2023-03-02T11:49:57;101011.97;;;7.31;48.58
64644;BME280;51056;50.330;7.914;2023-03-02T11:53:04;101000.66;;;7.32;48.29
64644;BME280;51056;50.330;7.914;2023-03-02T11:56:09;101002.78;;;7.47;48.37
64644;BME280;51056;50.330;7.914;2023-03-02T11:59:17;100997.72;;;7.69;47.88
64644;BME280;51056;50.330;7.914;2023-03-02T12:02:21;100999.88;;;7.83;48.09
64644;BME280;51056;50.330;7.914;2023-03-02T12:05:28;100987.97;;;8.01;47.70
64644;BME280;51056;50.330;7.914;2023-03-02T12:08:34;100987.75;;;8.07;46.65
64644;BME280;51056;50.330;7.914;2023-03-02T12:11:38;100988.47;;;8.12;47.14
64644;BME280;51056;50.330;7.914;2023-03-02T12:14:42;100989.09;;;8.19;47.89
64644;BME280;51056;50.330;7.914;2023-03-02T12:17:45;100985.22;;;8.30;46.91
64644;BME280;51056;50.330;7.914;2023-03-02T12:24:04;100977.19;;;8.61;46.84
64644;BME280;51056;50.330;7.914;2023-03-02T12:33:25;100962.25;;;9.11;45.07
64644;BME280;51056;50.330;7.914;2023-03-02T12:36:30;100958.38;;;9.21;45.60
64644;BME280;51056;50.330;7.914;2023-03-02T12:46:22;100935.31;;;9.54;44.62
64644;BME280;51056;50.330;7.914;2023-03-02T12:52:37;100933.47;;;9.56;43.89
64644;BME280;51056;50.330;7.914;2023-03-02T12:55:43;100915.50;;;9.69;44.77
64644;BME280;51056;50.330;7.914;2023-03-02T12:58:49;100921.47;;;9.93;44.42
64644;BME280;51056;50.330;7.914;2023-03-02T13:02:02;100915.63;;;10.07;43.57
64644;BME280;51056;50.330;7.914;2023-03-02T13:05:09;100907.31;;;10.17;43.36
64644;BME280;51056;50.330;7.914;2023-03-02T13:08:23;100901.38;;;10.34;43.40
64644;BME280;51056;50.330;7.914;2023-03-02T13:11:33;100900.88;;;10.64;43.41
64644;BME280;51056;50.330;7.914;2023-03-02T13:14:40;100903.19;;;10.89;41.84
64644;BME280;51056;50.330;7.914;2023-03-02T13:17:52;100896.16;;;11.26;40.99
64644;BME280;51056;50.330;7.914;2023-03-02T13:20:55;100876.13;;;11.77;40.10
64644;BME280;51056;50.330;7.914;2023-03-02T13:23:58;100876.78;;;12.15;38.61
64644;BME280;51056;50.330;7.914;2023-03-02T13:27:06;100879.28;;;12.82;42.09
64644;BME280;51056;50.330;7.914;2023-03-02T13:30:11;100871.75;;;12.91;40.97
64644;BME280;51056;50.330;7.914;2023-03-02T13:33:20;100869.41;;;12.55;38.15
64644;BME280;51056;50.330;7.914;2023-03-02T13:36:28;100865.09;;;12.05;37.90
64644;BME280;51056;50.330;7.914;2023-03-02T13:39:35;100865.41;;;12.32;38.80
64644;BME280;51056;50.330;7.914;2023-03-02T13:42:39;100867.53;;;11.75;38.47
64644;BME280;51056;50.330;7.914;2023-03-02T13:45:49;100858.75;;;12.09;39.49
64644;BME280;51056;50.330;7.914;2023-03-02T13:48:53;100865.34;;;11.83;38.89
64644;BME280;51056;50.330;7.914;2023-03-02T13:52:06;100861.44;;;11.74;39.42
64644;BME280;51056;50.330;7.914;2023-03-02T13:55:16;100854.34;;;11.94;39.43
64644;BME280;51056;50.330;7.914;2023-03-02T13:58:20;100847.25;;;11.78;38.77
64644;BME280;51056;50.330;7.914;2023-03-02T14:01:26;100850.56;;;11.64;39.07
64644;BME280;51056;50.330;7.914;2023-03-02T14:04:30;100851.66;;;11.78;38.51
64644;BME280;51056;50.330;7.914;2023-03-02T14:07:33;100850.47;;;11.83;38.63
64644;BME280;51056;50.330;7.914;2023-03-02T14:10:38;100839.78;;;11.88;38.26
64644;BME280;51056;50.330;7.914;2023-03-02T14:13:48;100839.25;;;11.81;37.39
64644;BME280;51056;50.330;7.914;2023-03-02T14:16:55;100847.41;;;11.75;37.34
64644;BME280;51056;50.330;7.914;2023-03-02T14:20:00;100843.94;;;11.92;36.78
64644;BME280;51056;50.330;7.914;2023-03-02T14:23:07;100850.00;;;11.93;37.93
64644;BME280;51056;50.330;7.914;2023-03-02T14:26:32;100844.47;;;11.81;37.50
64644;BME280;51056;50.330;7.914;2023-03-02T14:29:37;100842.44;;;12.04;37.53
64644;BME280;51056;50.330;7.914;2023-03-02T14:32:46;100836.22;;;12.06;37.19
64644;BME280;51056;50.330;7.914;2023-03-02T14:35:53;100839.38;;;11.96;37.09
64644;BME280;51056;50.330;7.914;2023-03-02T14:39:00;100841.97;;;12.13;37.34
64644;BME280;51056;50.330;7.914;2023-03-02T14:42:05;100838.56;;;12.11;37.86
64644;BME280;51056;50.330;7.914;2023-03-02T14:45:12;100839.69;;;12.23;37.23
64644;BME280;51056;50.330;7.914;2023-03-02T14:48:17;100839.19;;;12.32;37.60
64644;BME280;51056;50.330;7.914;2023-03-02T14:51:22;100826.47;;;11.75;37.43
64644;BME280;51056;50.330;7.914;2023-03-02T14:54:30;100836.56;;;12.16;36.61
64644;BME280;51056;50.330;7.914;2023-03-02T14:57:38;100834.84;;;12.15;35.03
64644;BME280;51056;50.330;7.914;2023-03-02T15:00:46;100836.81;;;12.59;36.21
64644;BME280;51056;50.330;7.914;2023-03-02T15:03:50;100840.97;;;13.09;34.72
64644;BME280;51056;50.330;7.914;2023-03-02T15:06:54;100842.00;;;13.37;35.09
64644;BME280;51056;50.330;7.914;2023-03-02T15:09:58;100840.03;;;13.99;34.30
64644;BME280;51056;50.330;7.914;2023-03-02T15:13:05;100834.25;;;14.35;33.66
64644;BME280;51056;50.330;7.914;2023-03-02T15:16:10;100835.88;;;14.09;32.65
64644;BME280;51056;50.330;7.914;2023-03-02T15:19:15;100836.50;;;14.41;32.48
64644;BME280;51056;50.330;7.914;2023-03-02T15:22:20;100839.03;;;13.43;34.37
64644;BME280;51056;50.330;7.914;2023-03-02T15:25:26;100843.06;;;12.41;35.24
64644;BME280;51056;50.330;7.914;2023-03-02T15:28:31;100845.63;;;11.76;36.54
64644;BME280;51056;50.330;7.914;2023-03-02T15:31:35;100847.59;;;11.37;37.29
64644;BME280;51056;50.330;7.914;2023-03-02T15:34:41;100851.47;;;11.30;37.87
64644;BME280;51056;50.330;7.914;2023-03-02T15:37:46;100852.91;;;11.01;38.05
64644;BME280;51056;50.330;7.914;2023-03-02T15:40:52;100860.09;;;10.79;38.64
64644;BME280;51056;50.330;7.914;2023-03-02T15:43:59;100855.59;;;10.63;40.15
64644;BME280;51056;50.330;7.914;2023-03-02T15:47:04;100862.19;;;10.14;38.96
64644;BME280;51056;50.330;7.914;2023-03-02T15:50:09;100864.53;;;10.20;40.08
64644;BME280;51056;50.330;7.914;2023-03-02T15:53:13;100858.28;;;10.04;39.60
64644;BME280;51056;50.330;7.914;2023-03-02T15:56:17;100860.75;;;10.07;40.66
64644;BME280;51056;50.330;7.914;2023-03-02T15:59:25;100862.84;;;9.98;40.62
64644;BME280;51056;50.330;7.914;2023-03-02T16:02:29;100869.53;;;9.85;40.00
64644;BME280;51056;50.330;7.914;2023-03-02T16:05:33;100873.44;;;9.76;41.26
64644;BME280;51056;50.330;7.914;2023-03-02T16:08:37;100866.88;;;9.66;41.46
64644;BME280;51056;50.330;7.914;2023-03-02T16:11:41;100873.50;;;9.54;40.34
64644;BME280;51056;50.330;7.914;2023-03-02T16:14:45;100878.72;;;9.54;41.23
64644;BME280;51056;50.330;7.914;2023-03-02T16:17:49;100884.56;;;9.39;40.26
64644;BME280;51056;50.330;7.914;2023-03-02T16:20:52;100878.50;;;9.39;41.27
64644;BME280;51056;50.330;7.914;2023-03-02T16:23:56;100883.25;;;9.29;42.14
64644;BME280;51056;50.330;7.914;2023-03-02T16:27:06;100886.25;;;9.20;42.61
64644;BME280;51056;50.330;7.914;2023-03-02T16:30:10;100878.78;;;9.11;43.54
64644;BME280;51056;50.330;7.914;2023-03-02T16:33:15;100886.25;;;8.98;43.71
64644;BME280;51056;50.330;7.914;2023-03-02T16:36:22;100884.31;;;8.81;43.75
64644;BME280;51056;50.330;7.914;2023-03-02T16:39:26;100885.56;;;8.71;44.46
64644;BME280;51056;50.330;7.914;2023-03-02T16:42:30;100887.88;;;8.56;44.73
64644;BME280;51056;50.330;7.914;2023-03-02T16:45:33;100891.19;;;8.36;46.19
64644;BME280;51056;50.330;7.914;2023-03-02T16:48:41;100891.03;;;8.18;46.90
64644;BME280;51056;50.330;7.914;2023-03-02T16:51:46;100900.19;;;8.04;47.57
64644;BME280;51056;50.330;7.914;2023-03-02T16:54:53;100897.31;;;7.87;47.44
64644;BME280;51056;50.330;7.914;2023-03-02T16:57:56;100907.47;;;7.69;48.87
64644;BME280;51056;50.330;7.914;2023-03-02T17:01:02;100903.91;;;7.47;50.12
64644;BME280;51056;50.330;7.914;2023-03-02T17:04:08;100902.72;;;7.31;50.45
64644;BME280;51056;50.330;7.914;2023-03-02T17:07:12;100910.09;;;7.16;50.63
64644;BME280;51056;50.330;7.914;2023-03-02T17:10:17;100911.41;;;7.02;51.64
64644;BME280;51056;50.330;7.914;2023-03-02T17:13:22;100914.44;;;6.88;52.19
64644;BME280;51056;50.330;7.914;2023-03-02T17:16:26;100919.44;;;6.66;53.53